createdAt,value
2022-11-07T00:00:55.953Z,98853.81
2022-11-07T00:04:57.866Z,98855.09
2022-11-07T00:08:59.877Z,98849.50
2022-11-07T00:13:01.816Z,98844.22
2022-11-07T00:17:04.188Z,98854.28
2022-11-07T00:21:09.168Z,98857.63
2022-11-07T00:25:11.246Z,98856.78
2022-11-07T00:29:19.183Z,98859.03
2022-11-07T00:33:21.238Z,98860.53
2022-11-07T00:37:23.627Z,98861.91
2022-11-07T00:41:26.158Z,98870.00
2022-11-07T00:45:28.187Z,98861.69
2022-11-07T00:49:30.154Z,98874.63
2022-11-07T00:53:32.096Z,98871.19
2022-11-07T00:57:34.123Z,98870.31
2022-11-07T01:01:36.462Z,98873.16
2022-11-07T01:05:38.561Z,98875.56
2022-11-07T01:09:40.792Z,98873.97
2022-11-07T01:13:42.786Z,98872.50
2022-11-07T01:17:45.394Z,98874.19
2022-11-07T01:21:47.781Z,98869.94
2022-11-07T01:25:50.569Z,98864.91
2022-11-07T01:29:52.590Z,98870.22
2022-11-07T01:33:55.055Z,98870.59
2022-11-07T01:37:56.986Z,98874.66
2022-11-07T01:41:59.084Z,98870.00
2022-11-07T01:46:01.014Z,98876.47
2022-11-07T01:50:04.007Z,98880.31
2022-11-07T01:54:06.754Z,98869.00
2022-11-07T01:58:09.614Z,98865.75
2022-11-07T02:02:12.037Z,98867.97
2022-11-07T02:06:21.383Z,98869.25
2022-11-07T02:10:23.956Z,98877.97
2022-11-07T02:14:26.077Z,98877.16
2022-11-07T02:18:29.394Z,98868.44
2022-11-07T02:22:53.478Z,98875.28
2022-11-07T02:26:58.817Z,98868.19
2022-11-07T02:31:00.741Z,98867.63
2022-11-07T02:35:27.496Z,98860.19
2022-11-07T02:39:29.609Z,98867.66
2022-11-07T02:43:34.470Z,98872.47
2022-11-07T02:47:36.495Z,98861.16
2022-11-07T02:51:38.425Z,98868.88
2022-11-07T02:55:40.403Z,98876.16
2022-11-07T02:59:42.701Z,98878.19
2022-11-07T03:03:47.676Z,98889.72
2022-11-07T03:07:50.375Z,98892.34
2022-11-07T03:11:53.214Z,98883.47
2022-11-07T03:15:56.082Z,98897.59
2022-11-07T03:19:59.443Z,98886.47
2022-11-07T03:24:01.378Z,98896.63
2022-11-07T03:28:04.247Z,98890.34
2022-11-07T03:32:06.186Z,98883.84
2022-11-07T03:36:08.578Z,98885.09
2022-11-07T03:40:10.828Z,98892.97
2022-11-07T03:44:12.743Z,98885.88
2022-11-07T03:48:14.709Z,98888.72
2022-11-07T03:52:17.529Z,98895.63
2022-11-07T03:56:19.522Z,98903.31
2022-11-07T04:00:21.931Z,98906.13
2022-11-07T04:04:25.057Z,98907.72
2022-11-07T04:08:27.023Z,98906.13
2022-11-07T04:12:47.553Z,98909.53
2022-11-07T04:17:07.991Z,98899.69
2022-11-07T04:21:10.187Z,98912.44
2022-11-07T04:25:12.545Z,98917.84
2022-11-07T04:29:14.739Z,98920.72
2022-11-07T04:33:16.998Z,98926.16
2022-11-07T04:37:19.838Z,98921.53
2022-11-07T04:41:24.409Z,98928.41
2022-11-07T04:45:26.470Z,98923.34
2022-11-07T04:49:28.491Z,98927.16
2022-11-07T04:53:30.477Z,98932.41
2022-11-07T04:57:32.560Z,98927.38
2022-11-07T05:01:35.055Z,98936.84
2022-11-07T05:05:37.359Z,98936.66
2022-11-07T05:09:39.295Z,98941.13
2022-11-07T05:13:41.506Z,98935.88
2022-11-07T05:17:44.325Z,98950.41
2022-11-07T05:21:47.056Z,98940.91
2022-11-07T05:25:50.610Z,98952.03
2022-11-07T05:29:52.720Z,98953.25
2022-11-07T05:33:54.749Z,98943.72
2022-11-07T05:37:56.712Z,98930.56
2022-11-07T05:42:00.541Z,98946.16
2022-11-07T05:46:02.470Z,98947.56
2022-11-07T05:50:04.814Z,98944.16
2022-11-07T05:54:06.836Z,98950.81
2022-11-07T05:58:12.961Z,98953.03
2022-11-07T06:02:14.952Z,98960.28
2022-11-07T06:06:16.912Z,98983.94
2022-11-07T06:10:19.098Z,98973.66
2022-11-07T06:19:05.943Z,98994.06
2022-11-07T06:23:08.414Z,98990.66
2022-11-07T06:27:10.382Z,98988.81
2022-11-07T06:31:12.659Z,98998.75
2022-11-07T06:35:14.694Z,98997.56
2022-11-07T06:39:16.982Z,98994.34
2022-11-07T06:43:20.579Z,98996.34
2022-11-07T06:47:22.852Z,99009.53
2022-11-07T06:51:25.048Z,99022.06
2022-11-07T06:55:26.996Z,99027.53
2022-11-07T06:59:29.003Z,99039.69
2022-11-07T07:03:31.455Z,99047.97
2022-11-07T07:07:33.496Z,99043.50
2022-11-07T07:11:37.562Z,99046.53
2022-11-07T07:15:50.495Z,99048.13
2022-11-07T07:19:53.262Z,99044.84
2022-11-07T07:23:55.588Z,99051.22
2022-11-07T07:27:57.527Z,99043.47
2022-11-07T07:31:59.462Z,99055.56
2022-11-07T07:36:01.479Z,99053.19
2022-11-07T07:40:03.796Z,99046.31
2022-11-07T07:44:05.984Z,99039.25
2022-11-07T07:48:08.041Z,99033.34
2022-11-07T07:52:09.986Z,99035.59
2022-11-07T07:56:12.039Z,99044.22
2022-11-07T08:00:14.451Z,99040.56
2022-11-07T08:04:16.508Z,99047.81
2022-11-07T08:08:18.485Z,99059.41
2022-11-07T08:12:20.406Z,99047.16
2022-11-07T08:16:22.445Z,99051.38
2022-11-07T08:20:28.058Z,99049.09
2022-11-07T08:24:30.497Z,99058.72
2022-11-07T08:28:35.706Z,99063.00
2022-11-07T08:32:37.851Z,99067.38
2022-11-07T08:36:40.013Z,99068.09
2022-11-07T08:40:42.073Z,99080.53
2022-11-07T08:44:44.283Z,99083.41
2022-11-07T08:48:47.018Z,99080.31
2022-11-07T08:52:48.977Z,99075.44
2022-11-07T08:56:51.016Z,99080.91
2022-11-07T09:00:53.048Z,99083.41
2022-11-07T09:04:55.106Z,99082.06
2022-11-07T09:08:57.042Z,99085.91
2022-11-07T09:12:58.998Z,99083.94
2022-11-07T09:17:00.970Z,99088.19
2022-11-07T09:21:03.013Z,99088.03
2022-11-07T09:25:05.732Z,99089.19
2022-11-07T09:29:07.752Z,99083.91
2022-11-07T09:33:09.837Z,99084.84
2022-11-07T09:37:11.877Z,99087.75
2022-11-07T09:41:20.908Z,99086.94
2022-11-07T09:45:23.122Z,99088.53
2022-11-07T09:49:47.102Z,99090.69
2022-11-07T09:53:58.510Z,99088.63
2022-11-07T09:58:05.142Z,99080.28
2022-11-07T10:02:15.794Z,99083.94
2022-11-07T10:06:26.638Z,99082.25
2022-11-07T10:10:57.267Z,99090.41
2022-11-07T10:15:09.982Z,99083.81
2022-11-07T10:19:33.924Z,99083.06
2022-11-07T10:23:44.849Z,99078.59
2022-11-07T10:28:08.395Z,99071.13
2022-11-07T10:32:28.620Z,99067.25
2022-11-07T10:36:32.242Z,99066.75
2022-11-07T10:40:38.972Z,99066.78
2022-11-07T10:44:43.147Z,99071.91
2022-11-07T10:48:57.091Z,99070.91
2022-11-07T10:53:09.679Z,99078.34
2022-11-07T10:57:16.355Z,99065.81
2022-11-07T11:01:25.594Z,99065.34
2022-11-07T11:05:42.143Z,99058.38
2022-11-07T11:09:53.874Z,99054.88
2022-11-07T11:14:12.272Z,99045.78
2022-11-07T11:18:18.131Z,99048.72
2022-11-07T11:22:25.772Z,99033.44
2022-11-07T11:26:35.553Z,99027.31
2022-11-07T11:30:38.028Z,99021.38
2022-11-07T11:34:55.005Z,99015.44
2022-11-07T11:38:59.371Z,99012.47
2022-11-07T11:43:06.728Z,99012.72
2022-11-07T11:47:34.540Z,99004.91
2022-11-07T11:51:42.175Z,99004.34
2022-11-07T11:55:54.326Z,98990.91
2022-11-07T12:00:20.911Z,98991.19
2022-11-07T12:04:39.984Z,98988.94
2022-11-07T12:08:51.899Z,98979.81
2022-11-07T12:13:09.545Z,98975.47
2022-11-07T12:17:16.200Z,98969.19
2022-11-07T12:21:48.706Z,98967.72
2022-11-07T12:25:54.965Z,98965.34
2022-11-07T12:30:24.150Z,98958.88
2022-11-07T12:34:45.285Z,98954.44
2022-11-07T12:39:02.820Z,98952.41
2022-11-07T12:43:15.909Z,98952.88
2022-11-07T12:47:35.596Z,98946.91
2022-11-07T12:51:51.545Z,98942.13
2022-11-07T12:56:10.683Z,98944.16
2022-11-07T13:00:29.008Z,98939.75
2022-11-07T13:04:50.946Z,98946.31
2022-11-07T13:09:14.620Z,98942.84
2022-11-07T13:14:02.349Z,98935.91
2022-11-07T13:18:18.799Z,98944.94
2022-11-07T13:22:24.431Z,98940.66
2022-11-07T13:26:46.258Z,98943.38
2022-11-07T13:30:57.862Z,98938.38
2022-11-07T13:35:02.968Z,98936.16
2022-11-07T13:39:06.906Z,98940.28
2022-11-07T13:43:24.264Z,98940.50
2022-11-07T13:47:34.738Z,98937.63
2022-11-07T13:51:45.922Z,98939.06
2022-11-07T13:55:56.317Z,98940.13
2022-11-07T14:00:14.409Z,98931.34
2022-11-07T14:04:20.051Z,98926.44
2022-11-07T14:08:24.918Z,98929.16
2022-11-07T14:12:28.265Z,98927.78
2022-11-07T14:16:33.123Z,98931.22
2022-11-07T14:20:35.116Z,98926.78
2022-11-07T14:24:37.086Z,98925.69
2022-11-07T14:28:39.894Z,98929.91
2022-11-07T14:32:54.559Z,98925.53
2022-11-07T14:37:00.567Z,98923.88
2022-11-07T14:41:03.080Z,98927.13
2022-11-07T14:45:05.758Z,98919.63
2022-11-07T14:49:26.111Z,98923.41
2022-11-07T14:53:39.644Z,98917.25
2022-11-07T14:57:41.670Z,98921.09
2022-11-07T15:01:55.560Z,98929.22
2022-11-07T15:05:58.158Z,98931.00
2022-11-07T15:10:14.537Z,98931.28
2022-11-07T15:14:26.523Z,98925.53
2022-11-07T15:18:29.426Z,98933.75
2022-11-07T15:22:37.690Z,98936.75
2022-11-07T15:26:39.646Z,98940.16
2022-11-07T15:30:43.748Z,98942.41
2022-11-07T15:35:07.967Z,98951.13
2022-11-07T15:39:17.578Z,98943.78
2022-11-07T15:43:20.489Z,98947.16
2022-11-07T15:47:23.007Z,98951.53
2022-11-07T15:51:25.662Z,98948.19
2022-11-07T15:55:27.798Z,98949.34
2022-11-07T15:59:33.490Z,98955.09
2022-11-07T16:03:36.066Z,98955.13
2022-11-07T16:07:39.599Z,98959.19
2022-11-07T16:11:41.667Z,98964.22
2022-11-07T16:15:54.058Z,98967.13
2022-11-07T16:20:01.085Z,98972.19
2022-11-07T16:24:03.809Z,98975.09
2022-11-07T16:28:06.754Z,98969.16
2022-11-07T16:32:17.560Z,98971.75
2022-11-07T16:36:25.955Z,98983.25
2022-11-07T16:40:28.377Z,98989.31
2022-11-07T16:44:30.929Z,98991.88
2022-11-07T16:48:37.793Z,98992.38
2022-11-07T16:52:40.528Z,98997.31
2022-11-07T16:56:43.038Z,99010.75
2022-11-07T17:00:45.238Z,99019.16
2022-11-07T17:04:47.389Z,99014.25
2022-11-07T17:08:49.457Z,99022.44
2022-11-07T17:12:51.386Z,99023.63
2022-11-07T17:16:53.948Z,99023.22
2022-11-07T17:20:56.686Z,99023.84
2022-11-07T17:24:59.386Z,99032.47
2022-11-07T17:29:04.483Z,99041.38
2022-11-07T17:33:07.306Z,99042.53
2022-11-07T17:37:17.863Z,99039.50
2022-11-07T17:41:22.037Z,99051.09
2022-11-07T17:45:25.142Z,99049.78
2022-11-07T17:49:27.552Z,99052.09
2022-11-07T17:53:32.331Z,99057.16
2022-11-07T17:57:34.286Z,99065.34
2022-11-07T18:01:38.391Z,99075.81
2022-11-07T18:05:40.557Z,99083.38
2022-11-07T18:09:43.007Z,99083.06
2022-11-07T18:13:44.979Z,99086.75
2022-11-07T18:17:46.941Z,99090.97
2022-11-07T18:21:49.204Z,99085.72
2022-11-07T18:25:51.202Z,99089.28
2022-11-07T18:29:53.135Z,99092.31
2022-11-07T18:33:59.891Z,99085.06
2022-11-07T18:38:01.797Z,99087.00
2022-11-07T18:42:04.048Z,99075.97
2022-11-07T18:46:09.056Z,99080.06
2022-11-07T18:50:11.391Z,99078.84
2022-11-07T18:54:14.017Z,99082.50
2022-11-07T18:58:16.351Z,99076.78
2022-11-07T19:02:23.323Z,99074.28
2022-11-07T19:06:28.443Z,99090.28
2022-11-07T19:10:30.494Z,99090.63
2022-11-07T19:14:33.588Z,99090.28
2022-11-07T19:18:35.884Z,99090.56
2022-11-07T19:22:37.936Z,99098.91
2022-11-07T19:26:39.889Z,99100.66
2022-11-07T19:30:42.655Z,99098.84
2022-11-07T19:34:45.104Z,99101.53
2022-11-07T19:38:48.372Z,99113.59
2022-11-07T19:42:51.754Z,99104.19
2022-11-07T19:46:53.717Z,99119.59
2022-11-07T19:50:55.720Z,99125.03
2022-11-07T19:54:57.690Z,99122.25
2022-11-07T19:59:01.500Z,99133.69
2022-11-07T20:03:03.636Z,99132.16
2022-11-07T20:07:06.221Z,99138.28
2022-11-07T20:11:08.346Z,99152.72
2022-11-07T20:15:12.321Z,99145.09
2022-11-07T20:19:15.599Z,99148.66
2022-11-07T20:23:18.012Z,99151.31
2022-11-07T20:27:20.296Z,99144.94
2022-11-07T20:31:29.022Z,99143.78
2022-11-07T20:35:31.061Z,99144.97
2022-11-07T20:39:33.044Z,99150.66
2022-11-07T20:43:35.869Z,99151.69
2022-11-07T20:47:37.825Z,99153.75
2022-11-07T20:51:40.290Z,99153.78
2022-11-07T20:55:43.763Z,99153.28
2022-11-07T20:59:46.035Z,99168.81
2022-11-07T21:03:49.117Z,99168.47
2022-11-07T21:07:51.173Z,99168.09
2022-11-07T21:11:53.629Z,99172.16
2022-11-07T21:15:55.712Z,99166.97
2022-11-07T21:19:57.711Z,99169.28
2022-11-07T21:23:59.861Z,99173.28
2022-11-07T21:28:01.960Z,99176.66
2022-11-07T21:32:06.779Z,99175.47
2022-11-07T21:36:15.124Z,99175.59
2022-11-07T21:40:17.091Z,99180.31
2022-11-07T21:44:19.373Z,99180.44
2022-11-07T21:48:21.393Z,99186.56
2022-11-07T21:52:23.350Z,99184.06
2022-11-07T21:56:28.167Z,99175.56
2022-11-07T22:00:35.557Z,99169.31
2022-11-07T22:04:38.081Z,99169.22
2022-11-07T22:08:41.463Z,99171.06
2022-11-07T22:12:43.419Z,99161.59
2022-11-07T22:16:45.592Z,99161.81
2022-11-07T22:20:47.595Z,99166.97
2022-11-07T22:24:49.558Z,99158.44
2022-11-07T22:28:52.864Z,99152.34
2022-11-07T22:32:54.984Z,99156.47
2022-11-07T22:36:56.941Z,99154.00
2022-11-07T22:40:59.034Z,99150.63
2022-11-07T22:45:01.203Z,99158.78
2022-11-07T22:49:03.386Z,99158.44
2022-11-07T22:53:05.408Z,99159.19
2022-11-07T22:57:07.360Z,99172.53
2022-11-07T23:01:21.050Z,99173.69
2022-11-07T23:05:23.296Z,99180.69
2022-11-07T23:09:25.289Z,99185.31
2022-11-07T23:13:27.591Z,99174.72
2022-11-07T23:17:31.379Z,99166.78
2022-11-07T23:21:34.021Z,99158.69
2022-11-07T23:25:36.161Z,99152.84
2022-11-07T23:29:38.170Z,99159.69
2022-11-07T23:33:40.688Z,99162.13
2022-11-07T23:37:42.616Z,99160.59
2022-11-07T23:41:45.560Z,99160.34
2022-11-07T23:46:06.679Z,99160.72
2022-11-07T23:50:27.804Z,99158.59
2022-11-07T23:54:48.371Z,99162.28
2022-11-07T23:59:09.729Z,99161.47
